sensor_id;sensor_type;location;lat;lon;timestamp;temperature;humidity
70368;DHT22;57789;53.868;10.728;2023-08-01T00:02:10;15.90;99.90
70368;DHT22;57789;53.868;10.728;2023-08-01T00:04:36;15.90;99.90
70368;DHT22;57789;53.868;10.728;2023-08-01T00:07:02;15.90;99.90
70368;DHT22;57789;53.868;10.728;2023-08-01T00:09:27;16.00;99.90
70368;DHT22;57789;53.868;10.728;2023-08-01T00:11:54;15.90;99.90
70368;DHT22;57789;53.868;10.728;2023-08-01T00:14:20;15.90;99.90
70368;DHT22;57789;53.868;10.728;2023-08-01T00:16:52;15.80;99.90
70368;DHT22;57789;53.868;10.728;2023-08-01T00:19:18;15.80;99.90
70368;DHT22;57789;53.868;10.728;2023-08-01T00:21:44;15.80;99.90
70368;DHT22;57789;53.868;10.728;2023-08-01T00:24:10;15.90;99.90
70368;DHT22;57789;53.868;10.728;2023-08-01T00:26:35;15.90;99.90
70368;DHT22;57789;53.868;10.728;2023-08-01T00:29:01;15.90;99.90
70368;DHT22;57789;53.868;10.728;2023-08-01T00:31:27;16.00;99.90
70368;DHT22;57789;53.868;10.728;2023-08-01T00:33:52;16.00;99.90
70368;DHT22;57789;53.868;10.728;2023-08-01T00:36:18;16.00;99.90
70368;DHT22;57789;53.868;10.728;2023-08-01T00:38:44;16.00;99.90
70368;DHT22;57789;53.868;10.728;2023-08-01T00:41:10;16.00;99.90
70368;DHT22;57789;53.868;10.728;2023-08-01T00:43:36;15.90;99.90
70368;DHT22;57789;53.868;10.728;2023-08-01T00:46:04;15.90;99.90
70368;DHT22;57789;53.868;10.728;2023-08-01T00:48:31;15.90;99.90
70368;DHT22;57789;53.868;10.728;2023-08-01T00:51:04;16.00;99.90
70368;DHT22;57789;53.868;10.728;2023-08-01T00:53:30;16.00;99.90
70368;DHT22;57789;53.868;10.728;2023-08-01T00:55:57;15.90;99.90
70368;DHT22;57789;53.868;10.728;2023-08-01T00:58:23;15.90;99.90
70368;DHT22;57789;53.868;10.728;2023-08-01T01:00:49;15.90;99.90
70368;DHT22;57789;53.868;10.728;2023-08-01T01:03:15;15.90;99.90
70368;DHT22;57789;53.868;10.728;2023-08-01T01:06:47;15.90;99.90
70368;DHT22;57789;53.868;10.728;2023-08-01T01:08:48;15.90;99.90
70368;DHT22;57789;53.868;10.728;2023-08-01T01:11:13;15.90;99.90
70368;DHT22;57789;53.868;10.728;2023-08-01T01:13:39;15.90;99.90
70368;DHT22;57789;53.868;10.728;2023-08-01T01:16:05;15.90;99.90
70368;DHT22;57789;53.868;10.728;2023-08-01T01:18:31;15.80;99.90
70368;DHT22;57789;53.868;10.728;2023-08-01T01:20:57;15.70;99.90
70368;DHT22;57789;53.868;10.728;2023-08-01T01:23:23;15.70;99.90
70368;DHT22;57789;53.868;10.728;2023-08-01T01:25:51;15.70;99.90
70368;DHT22;57789;53.868;10.728;2023-08-01T01:28:17;15.70;99.90
70368;DHT22;57789;53.868;10.728;2023-08-01T01:30:43;15.70;99.90
70368;DHT22;57789;53.868;10.728;2023-08-01T01:33:10;15.70;99.90
70368;DHT22;57789;53.868;10.728;2023-08-01T01:35:36;15.70;99.90
70368;DHT22;57789;53.868;10.728;2023-08-01T01:38:02;15.80;99.90
70368;DHT22;57789;53.868;10.728;2023-08-01T01:40:32;15.80;99.90
70368;DHT22;57789;53.868;10.728;2023-08-01T01:42:59;15.90;99.90
70368;DHT22;57789;53.868;10.728;2023-08-01T01:45:25;15.90;99.90
70368;DHT22;57789;53.868;10.728;2023-08-01T01:47:51;15.90;99.90
70368;DHT22;57789;53.868;10.728;2023-08-01T01:50:17;15.90;99.90
70368;DHT22;57789;53.868;10.728;2023-08-01T01:52:46;15.90;99.90
70368;DHT22;57789;53.868;10.728;2023-08-01T01:55:12;15.80;99.90
70368;DHT22;57789;53.868;10.728;2023-08-01T01:57:38;15.80;99.90
70368;DHT22;57789;53.868;10.728;2023-08-01T02:00:05;15.80;99.90
70368;DHT22;57789;53.868;10.728;2023-08-01T02:02:31;15.80;99.90
70368;DHT22;57789;53.868;10.728;2023-08-01T02:04:57;15.80;99.90
70368;DHT22;57789;53.868;10.728;2023-08-01T02:07:22;15.80;99.90
70368;DHT22;57789;53.868;10.728;2023-08-01T02:09:48;15.90;99.90
70368;DHT22;57789;53.868;10.728;2023-08-01T02:12:14;15.90;99.90
70368;DHT22;57789;53.868;10.728;2023-08-01T02:14:40;15.90;99.90
70368;DHT22;57789;53.868;10.728;2023-08-01T02:17:06;15.90;99.90
70368;DHT22;57789;53.868;10.728;2023-08-01T02:19:33;15.90;99.90
70368;DHT22;57789;53.868;10.728;2023-08-01T02:21:58;15.80;99.90
70368;DHT22;57789;53.868;10.728;2023-08-01T02:24:24;15.80;99.90
70368;DHT22;57789;53.868;10.728;2023-08-01T02:26:50;15.70;99.90
70368;DHT22;57789;53.868;10.728;2023-08-01T02:29:16;15.70;99.90
70368;DHT22;57789;53.868;10.728;2023-08-01T02:31:42;15.70;99.90
70368;DHT22;57789;53.868;10.728;2023-08-01T02:34:08;15.60;99.90
70368;DHT22;57789;53.868;10.728;2023-08-01T02:36:34;15.60;99.90
70368;DHT22;57789;53.868;10.728;2023-08-01T02:39:00;15.50;99.90
70368;DHT22;57789;53.868;10.728;2023-08-01T02:41:25;15.50;99.90
70368;DHT22;57789;53.868;10.728;2023-08-01T02:43:51;15.50;99.90
70368;DHT22;57789;53.868;10.728;2023-08-01T02:46:17;15.50;99.90
70368;DHT22;57789;53.868;10.728;2023-08-01T02:48:43;15.60;99.90
70368;DHT22;57789;53.868;10.728;2023-08-01T02:51:08;15.50;99.90
70368;DHT22;57789;53.868;10.728;2023-08-01T02:53:35;15.50;99.90
70368;DHT22;57789;53.868;10.728;2023-08-01T02:56:01;15.50;99.90
70368;DHT22;57789;53.868;10.728;2023-08-01T02:58:28;15.50;99.90
70368;DHT22;57789;53.868;10.728;2023-08-01T03:00:54;15.50;99.90
70368;DHT22;57789;53.868;10.728;2023-08-01T03:03:19;15.50;99.90
70368;DHT22;57789;53.868;10.728;2023-08-01T03:05:45;15.50;99.90
70368;DHT22;57789;53.868;10.728;2023-08-01T03:08:11;15.60;99.90
70368;DHT22;57789;53.868;10.728;2023-08-01T03:10:36;15.50;99.90
70368;DHT22;57789;53.868;10.728;2023-08-01T03:13:02;15.50;99.90
70368;DHT22;57789;53.868;10.728;2023-08-01T03:15:28;15.50;99.90
70368;DHT22;57789;53.868;10.728;2023-08-01T03:17:54;15.50;99.90
70368;DHT22;57789;53.868;10.728;2023-08-01T03:20:19;15.50;99.90
70368;DHT22;57789;53.868;10.728;2023-08-01T03:22:45;15.50;99.90
70368;DHT22;57789;53.868;10.728;2023-08-01T03:25:11;15.50;99.90
70368;DHT22;57789;53.868;10.728;2023-08-01T03:27:37;15.50;99.90
70368;DHT22;57789;53.868;10.728;2023-08-01T03:30:03;15.50;99.90
70368;DHT22;57789;53.868;10.728;2023-08-01T03:32:30;15.50;99.90
70368;DHT22;57789;53.868;10.728;2023-08-01T03:34:56;15.50;99.90
70368;DHT22;57789;53.868;10.728;2023-08-01T03:37:21;15.50;99.90
70368;DHT22;57789;53.868;10.728;2023-08-01T03:39:47;15.50;99.90
70368;DHT22;57789;53.868;10.728;2023-08-01T03:42:13;15.50;99.90
70368;DHT22;57789;53.868;10.728;2023-08-01T03:44:40;15.50;99.90
70368;DHT22;57789;53.868;10.728;2023-08-01T03:47:06;15.50;99.90
70368;DHT22;57789;53.868;10.728;2023-08-01T03:49:32;15.50;99.90
70368;DHT22;57789;53.868;10.728;2023-08-01T03:51:57;15.50;99.90
70368;DHT22;57789;53.868;10.728;2023-08-01T03:54:25;15.50;99.90
70368;DHT22;57789;53.868;10.728;2023-08-01T03:56:50;15.50;99.90
70368;DHT22;57789;53.868;10.728;2023-08-01T03:59:18;15.50;99.90
70368;DHT22;57789;53.868;10.728;2023-08-01T04:01:44;15.50;99.90
70368;DHT22;57789;53.868;10.728;2023-08-01T04:04:10;15.50;99.90
70368;DHT22;57789;53.868;10.728;2023-08-01T04:06:36;15.50;99.90
70368;DHT22;57789;53.868;10.728;2023-08-01T04:09:02;15.50;99.90
70368;DHT22;57789;53.868;10.728;2023-08-01T04:11:29;15.50;99.90
70368;DHT22;57789;53.868;10.728;2023-08-01T04:13:55;15.60;99.90
70368;DHT22;57789;53.868;10.728;2023-08-01T04:16:21;15.50;99.90
70368;DHT22;57789;53.868;10.728;2023-08-01T04:18:47;15.50;99.90
70368;DHT22;57789;53.868;10.728;2023-08-01T04:21:14;15.50;99.90
70368;DHT22;57789;53.868;10.728;2023-08-01T04:23:40;15.60;99.90
70368;DHT22;57789;53.868;10.728;2023-08-01T04:26:08;15.60;99.90
70368;DHT22;57789;53.868;10.728;2023-08-01T04:28:34;15.60;99.90
70368;DHT22;57789;53.868;10.728;2023-08-01T04:31:00;15.70;99.90
70368;DHT22;57789;53.868;10.728;2023-08-01T04:33:26;15.70;99.90
70368;DHT22;57789;53.868;10.728;2023-08-01T04:35:51;15.70;99.90
70368;DHT22;57789;53.868;10.728;2023-08-01T04:38:17;15.70;99.90
70368;DHT22;57789;53.868;10.728;2023-08-01T04:40:44;15.70;99.90
70368;DHT22;57789;53.868;10.728;2023-08-01T04:43:12;15.70;99.90
70368;DHT22;57789;53.868;10.728;2023-08-01T04:45:38;15.70;99.90
70368;DHT22;57789;53.868;10.728;2023-08-01T04:48:03;15.70;99.90
70368;DHT22;57789;53.868;10.728;2023-08-01T04:50:29;15.70;99.90
70368;DHT22;57789;53.868;10.728;2023-08-01T04:52:55;15.70;99.90
70368;DHT22;57789;53.868;10.728;2023-08-01T04:55:21;15.70;99.90
70368;DHT22;57789;53.868;10.728;2023-08-01T04:57:46;15.70;99.90
70368;DHT22;57789;53.868;10.728;2023-08-01T05:00:13;15.80;99.90
70368;DHT22;57789;53.868;10.728;2023-08-01T05:02:39;15.80;99.90
70368;DHT22;57789;53.868;10.728;2023-08-01T05:05:05;15.80;99.90
70368;DHT22;57789;53.868;10.728;2023-08-01T05:07:31;15.80;99.90
70368;DHT22;57789;53.868;10.728;2023-08-01T05:09:56;15.90;99.90
70368;DHT22;57789;53.868;10.728;2023-08-01T05:12:22;15.90;99.90
70368;DHT22;57789;53.868;10.728;2023-08-01T05:14:48;15.90;99.90
70368;DHT22;57789;53.868;10.728;2023-08-01T05:17:14;16.00;99.90
70368;DHT22;57789;53.868;10.728;2023-08-01T05:19:39;16.00;99.90
70368;DHT22;57789;53.868;10.728;2023-08-01T05:22:05;16.00;99.90
70368;DHT22;57789;53.868;10.728;2023-08-01T05:24:31;16.10;99.90
70368;DHT22;57789;53.868;10.728;2023-08-01T05:26:58;16.10;99.90
70368;DHT22;57789;53.868;10.728;2023-08-01T05:29:23;16.10;99.90
70368;DHT22;57789;53.868;10.728;2023-08-01T05:31:50;16.10;99.90
70368;DHT22;57789;53.868;10.728;2023-08-01T05:34:16;16.10;99.90
70368;DHT22;57789;53.868;10.728;2023-08-01T05:36:41;16.10;99.90
70368;DHT22;57789;53.868;10.728;2023-08-01T05:39:07;16.10;99.90
70368;DHT22;57789;53.868;10.728;2023-08-01T05:41:33;16.10;99.90
70368;DHT22;57789;53.868;10.728;2023-08-01T05:43:58;16.10;99.90
70368;DHT22;57789;53.868;10.728;2023-08-01T05:46:24;16.20;99.90
70368;DHT22;57789;53.868;10.728;2023-08-01T05:48:50;16.30;99.90
70368;DHT22;57789;53.868;10.728;2023-08-01T05:51:15;16.40;99.90
70368;DHT22;57789;53.868;10.728;2023-08-01T05:53:41;16.50;99.90
70368;DHT22;57789;53.868;10.728;2023-08-01T05:56:07;16.50;99.90
70368;DHT22;57789;53.868;10.728;2023-08-01T05:58:33;16.60;99.90
70368;DHT22;57789;53.868;10.728;2023-08-01T06:00:59;16.60;99.90
70368;DHT22;57789;53.868;10.728;2023-08-01T06:03:25;16.60;99.90
70368;DHT22;57789;53.868;10.728;2023-08-01T06:05:51;16.70;99.90
70368;DHT22;57789;53.868;10.728;2023-08-01T06:08:16;16.70;99.90
70368;DHT22;57789;53.868;10.728;2023-08-01T06:10:42;16.70;99.90
70368;DHT22;57789;53.868;10.728;2023-08-01T06:13:08;16.60;99.90
70368;DHT22;57789;53.868;10.728;2023-08-01T06:15:34;16.60;99.90
70368;DHT22;57789;53.868;10.728;2023-08-01T06:18:00;16.70;99.90
70368;DHT22;57789;53.868;10.728;2023-08-01T06:20:27;16.70;99.90
70368;DHT22;57789;53.868;10.728;2023-08-01T06:22:53;16.60;99.90
70368;DHT22;57789;53.868;10.728;2023-08-01T06:25:20;16.60;99.90
70368;DHT22;57789;53.868;10.728;2023-08-01T06:27:47;16.60;99.90
70368;DHT22;57789;53.868;10.728;2023-08-01T06:30:15;16.60;99.90
70368;DHT22;57789;53.868;10.728;2023-08-01T06:32:43;16.60;99.90
70368;DHT22;57789;53.868;10.728;2023-08-01T06:35:10;16.60;99.90
70368;DHT22;57789;53.868;10.728;2023-08-01T06:37:36;16.60;99.90
70368;DHT22;57789;53.868;10.728;2023-08-01T06:40:02;16.70;99.90
70368;DHT22;57789;53.868;10.728;2023-08-01T06:42:28;16.80;99.90
70368;DHT22;57789;53.868;10.728;2023-08-01T06:44:54;16.80;99.90
70368;DHT22;57789;53.868;10.728;2023-08-01T06:47:21;16.70;99.90
70368;DHT22;57789;53.868;10.728;2023-08-01T06:49:46;16.80;99.90
70368;DHT22;57789;53.868;10.728;2023-08-01T06:52:12;16.80;99.90
70368;DHT22;57789;53.868;10.728;2023-08-01T06:54:38;16.90;99.90
70368;DHT22;57789;53.868;10.728;2023-08-01T06:57:08;16.90;99.90
70368;DHT22;57789;53.868;10.728;2023-08-01T06:59:34;17.10;99.90
70368;DHT22;57789;53.868;10.728;2023-08-01T07:02:00;17.10;99.90
70368;DHT22;57789;53.868;10.728;2023-08-01T07:04:26;17.10;99.90
70368;DHT22;57789;53.868;10.728;2023-08-01T07:06:52;17.20;99.90
70368;DHT22;57789;53.868;10.728;2023-08-01T07:09:18;17.20;99.90
70368;DHT22;57789;53.868;10.728;2023-08-01T07:11:44;17.20;99.90
70368;DHT22;57789;53.868;10.728;2023-08-01T07:14:10;17.30;99.90
70368;DHT22;57789;53.868;10.728;2023-08-01T07:16:37;17.30;99.90
70368;DHT22;57789;53.868;10.728;2023-08-01T07:19:04;17.30;99.90
70368;DHT22;57789;53.868;10.728;2023-08-01T07:21:29;17.40;99.90
70368;DHT22;57789;53.868;10.728;2023-08-01T07:24:01;17.40;99.90
70368;DHT22;57789;53.868;10.728;2023-08-01T07:26:28;17.40;99.90
70368;DHT22;57789;53.868;10.728;2023-08-01T07:28:54;17.40;99.90
70368;DHT22;57789;53.868;10.728;2023-08-01T07:31:21;17.40;99.90
70368;DHT22;57789;53.868;10.728;2023-08-01T07:33:47;17.40;99.90
70368;DHT22;57789;53.868;10.728;2023-08-01T07:36:13;17.40;99.90
70368;DHT22;57789;53.868;10.728;2023-08-01T07:38:39;17.40;99.90
70368;DHT22;57789;53.868;10.728;2023-08-01T07:41:06;17.30;99.90
70368;DHT22;57789;53.868;10.728;2023-08-01T07:43:33;17.30;99.90
70368;DHT22;57789;53.868;10.728;2023-08-01T07:46:00;17.30;99.90
70368;DHT22;57789;53.868;10.728;2023-08-01T07:48:26;17.30;99.90
70368;DHT22;57789;53.868;10.728;2023-08-01T07:50:52;17.30;99.90
70368;DHT22;57789;53.868;10.728;2023-08-01T07:53:17;17.20;99.90
70368;DHT22;57789;53.868;10.728;2023-08-01T07:55:43;17.20;99.90
70368;DHT22;57789;53.868;10.728;2023-08-01T07:58:09;17.10;99.90
70368;DHT22;57789;53.868;10.728;2023-08-01T08:00:35;17.10;99.90
70368;DHT22;57789;53.868;10.728;2023-08-01T08:03:01;17.10;99.90
70368;DHT22;57789;53.868;10.728;2023-08-01T08:05:27;17.00;99.90
70368;DHT22;57789;53.868;10.728;2023-08-01T08:07:53;17.10;99.90
70368;DHT22;57789;53.868;10.728;2023-08-01T08:10:18;17.30;99.90
70368;DHT22;57789;53.868;10.728;2023-08-01T08:12:44;17.40;99.90
70368;DHT22;57789;53.868;10.728;2023-08-01T08:15:10;17.30;99.90
70368;DHT22;57789;53.868;10.728;2023-08-01T08:17:36;17.30;99.90
70368;DHT22;57789;53.868;10.728;2023-08-01T08:20:03;17.30;99.90
70368;DHT22;57789;53.868;10.728;2023-08-01T08:22:29;17.30;99.90
70368;DHT22;57789;53.868;10.728;2023-08-01T08:24:55;17.30;99.90
70368;DHT22;57789;53.868;10.728;2023-08-01T08:27:21;17.30;99.90
70368;DHT22;57789;53.868;10.728;2023-08-01T08:29:46;17.40;99.90
70368;DHT22;57789;53.868;10.728;2023-08-01T08:32:13;17.40;99.90
70368;DHT22;57789;53.868;10.728;2023-08-01T08:34:39;17.50;99.90
70368;DHT22;57789;53.868;10.728;2023-08-01T08:37:05;17.70;99.90
70368;DHT22;57789;53.868;10.728;2023-08-01T08:39:31;17.70;99.90
70368;DHT22;57789;53.868;10.728;2023-08-01T08:41:57;17.80;99.90
70368;DHT22;57789;53.868;10.728;2023-08-01T08:44:25;17.80;99.90
70368;DHT22;57789;53.868;10.728;2023-08-01T08:46:52;17.80;99.90
70368;DHT22;57789;53.868;10.728;2023-08-01T08:49:22;17.80;99.90
70368;DHT22;57789;53.868;10.728;2023-08-01T08:51:49;17.80;99.90
70368;DHT22;57789;53.868;10.728;2023-08-01T08:54:16;18.00;99.90
70368;DHT22;57789;53.868;10.728;2023-08-01T08:56:42;17.90;99.90
70368;DHT22;57789;53.868;10.728;2023-08-01T08:59:08;17.80;99.90
70368;DHT22;57789;53.868;10.728;2023-08-01T09:01:39;17.80;99.90
70368;DHT22;57789;53.868;10.728;2023-08-01T09:04:05;18.00;99.90
70368;DHT22;57789;53.868;10.728;2023-08-01T09:06:49;18.10;99.90
70368;DHT22;57789;53.868;10.728;2023-08-01T09:09:26;18.20;99.90
70368;DHT22;57789;53.868;10.728;2023-08-01T09:11:57;18.40;99.90
70368;DHT22;57789;53.868;10.728;2023-08-01T09:14:25;18.50;99.90
70368;DHT22;57789;53.868;10.728;2023-08-01T09:16:52;18.70;99.90
70368;DHT22;57789;53.868;10.728;2023-08-01T09:19:21;18.90;99.90
70368;DHT22;57789;53.868;10.728;2023-08-01T09:21:48;19.00;99.90
70368;DHT22;57789;53.868;10.728;2023-08-01T09:24:20;19.00;99.90
70368;DHT22;57789;53.868;10.728;2023-08-01T09:26:49;19.10;99.90
70368;DHT22;57789;53.868;10.728;2023-08-01T09:29:19;19.00;99.90
70368;DHT22;57789;53.868;10.728;2023-08-01T09:31:46;19.00;99.90
70368;DHT22;57789;53.868;10.728;2023-08-01T09:36:47;19.20;99.90
70368;DHT22;57789;53.868;10.728;2023-08-01T09:39:20;19.10;99.90
70368;DHT22;57789;53.868;10.728;2023-08-01T09:44:26;19.00;99.90
70368;DHT22;57789;53.868;10.728;2023-08-01T09:47:02;19.10;99.90
70368;DHT22;57789;53.868;10.728;2023-08-01T09:49:29;19.30;99.90
70368;DHT22;57789;53.868;10.728;2023-08-01T09:51:56;19.50;99.90
70368;DHT22;57789;53.868;10.728;2023-08-01T09:54:23;19.60;99.90
70368;DHT22;57789;53.868;10.728;2023-08-01T09:56:51;19.50;99.90
70368;DHT22;57789;53.868;10.728;2023-08-01T09:59:23;19.60;99.90
70368;DHT22;57789;53.868;10.728;2023-08-01T10:01:51;19.60;99.90
70368;DHT22;57789;53.868;10.728;2023-08-01T10:04:30;19.70;99.90
70368;DHT22;57789;53.868;10.728;2023-08-01T10:07:11;19.80;99.90
70368;DHT22;57789;53.868;10.728;2023-08-01T10:09:38;19.70;99.90
70368;DHT22;57789;53.868;10.728;2023-08-01T10:12:12;19.60;99.90
70368;DHT22;57789;53.868;10.728;2023-08-01T10:14:49;19.40;99.90
70368;DHT22;57789;53.868;10.728;2023-08-01T10:17:21;19.10;99.90
70368;DHT22;57789;53.868;10.728;2023-08-01T10:19:49;18.70;99.90
70368;DHT22;57789;53.868;10.728;2023-08-01T10:22:18;18.80;99.90
70368;DHT22;57789;53.868;10.728;2023-08-01T10:24:47;18.90;99.90
70368;DHT22;57789;53.868;10.728;2023-08-01T10:27:19;19.00;99.90
70368;DHT22;57789;53.868;10.728;2023-08-01T10:30:02;19.30;99.90
70368;DHT22;57789;53.868;10.728;2023-08-01T10:32:33;19.30;99.90
70368;DHT22;57789;53.868;10.728;2023-08-01T10:34:59;19.30;99.90
70368;DHT22;57789;53.868;10.728;2023-08-01T10:37:44;19.20;99.90
70368;DHT22;57789;53.868;10.728;2023-08-01T10:40:14;19.10;99.90
70368;DHT22;57789;53.868;10.728;2023-08-01T10:42:45;18.90;99.90
70368;DHT22;57789;53.868;10.728;2023-08-01T10:45:25;18.60;99.90
70368;DHT22;57789;53.868;10.728;2023-08-01T10:47:52;18.50;99.90
70368;DHT22;57789;53.868;10.728;2023-08-01T10:50:19;18.50;99.90
70368;DHT22;57789;53.868;10.728;2023-08-01T10:52:46;18.50;99.90
70368;DHT22;57789;53.868;10.728;2023-08-01T10:55:13;18.80;99.90
70368;DHT22;57789;53.868;10.728;2023-08-01T10:57:47;19.00;99.90
70368;DHT22;57789;53.868;10.728;2023-08-01T11:00:16;19.00;99.90
70368;DHT22;57789;53.868;10.728;2023-08-01T11:02:50;19.00;99.90
70368;DHT22;57789;53.868;10.728;2023-08-01T11:05:19;18.90;99.90
70368;DHT22;57789;53.868;10.728;2023-08-01T11:07:55;19.10;99.90
70368;DHT22;57789;53.868;10.728;2023-08-01T11:10:30;19.40;99.90
70368;DHT22;57789;53.868;10.728;2023-08-01T11:13:12;19.60;99.90
70368;DHT22;57789;53.868;10.728;2023-08-01T11:15:39;19.80;99.90
70368;DHT22;57789;53.868;10.728;2023-08-01T11:18:04;20.10;99.90
70368;DHT22;57789;53.868;10.728;2023-08-01T11:20:30;20.10;99.90
70368;DHT22;57789;53.868;10.728;2023-08-01T11:22:58;20.30;99.90
70368;DHT22;57789;53.868;10.728;2023-08-01T11:25:34;20.60;99.90
70368;DHT22;57789;53.868;10.728;2023-08-01T11:28:06;20.90;99.90
70368;DHT22;57789;53.868;10.728;2023-08-01T11:30:33;20.90;99.90
70368;DHT22;57789;53.868;10.728;2023-08-01T11:33:12;21.10;99.90
70368;DHT22;57789;53.868;10.728;2023-08-01T11:35:38;21.20;99.90
70368;DHT22;57789;53.868;10.728;2023-08-01T11:38:05;21.00;99.90
70368;DHT22;57789;53.868;10.728;2023-08-01T11:40:32;20.20;99.90
70368;DHT22;57789;53.868;10.728;2023-08-01T11:42:58;19.20;99.90
70368;DHT22;57789;53.868;10.728;2023-08-01T11:45:24;18.60;99.90
70368;DHT22;57789;53.868;10.728;2023-08-01T11:47:50;18.00;99.90
70368;DHT22;57789;53.868;10.728;2023-08-01T11:50:22;17.10;99.90
70368;DHT22;57789;53.868;10.728;2023-08-01T11:52:48;16.30;99.90
70368;DHT22;57789;53.868;10.728;2023-08-01T11:55:22;15.90;99.90
70368;DHT22;57789;53.868;10.728;2023-08-01T11:57:57;15.60;99.90
70368;DHT22;57789;53.868;10.728;2023-08-01T12:00:28;15.50;99.90
70368;DHT22;57789;53.868;10.728;2023-08-01T12:03:08;15.30;99.90
70368;DHT22;57789;53.868;10.728;2023-08-01T12:05:39;15.20;99.90
70368;DHT22;57789;53.868;10.728;2023-08-01T12:08:13;15.20;99.90
70368;DHT22;57789;53.868;10.728;2023-08-01T12:10:41;15.10;99.90
70368;DHT22;57789;53.868;10.728;2023-08-01T12:13:20;15.10;99.90
70368;DHT22;57789;53.868;10.728;2023-08-01T12:15:48;15.20;99.90
70368;DHT22;57789;53.868;10.728;2023-08-01T12:18:29;15.40;99.90
70368;DHT22;57789;53.868;10.728;2023-08-01T12:20:55;15.50;99.90
70368;DHT22;57789;53.868;10.728;2023-08-01T12:23:21;15.70;99.90
70368;DHT22;57789;53.868;10.728;2023-08-01T12:25:47;15.80;99.90
70368;DHT22;57789;53.868;10.728;2023-08-01T12:28:14;15.90;99.90
70368;DHT22;57789;53.868;10.728;2023-08-01T12:30:40;16.00;99.90
70368;DHT22;57789;53.868;10.728;2023-08-01T12:33:09;16.10;99.90
70368;DHT22;57789;53.868;10.728;2023-08-01T12:35:39;16.00;99.90
70368;DHT22;57789;53.868;10.728;2023-08-01T12:38:05;16.00;99.90
70368;DHT22;57789;53.868;10.728;2023-08-01T12:40:31;15.90;99.90
70368;DHT22;57789;53.868;10.728;2023-08-01T12:42:56;15.90;99.90
70368;DHT22;57789;53.868;10.728;2023-08-01T12:45:22;15.80;99.90
70368;DHT22;57789;53.868;10.728;2023-08-01T12:47:49;15.80;99.90
70368;DHT22;57789;53.868;10.728;2023-08-01T12:50:17;15.80;99.90
70368;DHT22;57789;53.868;10.728;2023-08-01T12:52:43;15.80;99.90
70368;DHT22;57789;53.868;10.728;2023-08-01T12:55:09;15.90;99.90
70368;DHT22;57789;53.868;10.728;2023-08-01T12:57:34;16.10;99.90
70368;DHT22;57789;53.868;10.728;2023-08-01T13:00:00;16.30;99.90
70368;DHT22;57789;53.868;10.728;2023-08-01T13:02:27;16.70;99.90
70368;DHT22;57789;53.868;10.728;2023-08-01T13:04:53;17.20;99.90
70368;DHT22;57789;53.868;10.728;2023-08-01T13:07:19;17.70;99.90
70368;DHT22;57789;53.868;10.728;2023-08-01T13:09:44;18.10;99.90
70368;DHT22;57789;53.868;10.728;2023-08-01T13:12:10;18.50;99.90
70368;DHT22;57789;53.868;10.728;2023-08-01T13:14:36;18.80;99.90
70368;DHT22;57789;53.868;10.728;2023-08-01T13:17:02;18.70;99.90
70368;DHT22;57789;53.868;10.728;2023-08-01T13:19:28;19.00;99.90
70368;DHT22;57789;53.868;10.728;2023-08-01T13:21:53;19.40;99.90
70368;DHT22;57789;53.868;10.728;2023-08-01T13:24:19;19.30;99.90
70368;DHT22;57789;53.868;10.728;2023-08-01T13:26:45;19.50;99.90
70368;DHT22;57789;53.868;10.728;2023-08-01T13:29:11;20.10;99.90
70368;DHT22;57789;53.868;10.728;2023-08-01T13:31:36;20.40;99.90
70368;DHT22;57789;53.868;10.728;2023-08-01T13:34:02;20.60;99.90
70368;DHT22;57789;53.868;10.728;2023-08-01T13:36:28;20.30;99.90
70368;DHT22;57789;53.868;10.728;2023-08-01T13:38:53;20.20;99.90
70368;DHT22;57789;53.868;10.728;2023-08-01T13:41:19;20.30;99.90
70368;DHT22;57789;53.868;10.728;2023-08-01T13:43:45;20.50;99.90
70368;DHT22;57789;53.868;10.728;2023-08-01T13:46:15;20.70;99.90
70368;DHT22;57789;53.868;10.728;2023-08-01T13:48:45;20.90;99.90
70368;DHT22;57789;53.868;10.728;2023-08-01T13:51:12;20.90;99.90
70368;DHT22;57789;53.868;10.728;2023-08-01T13:53:43;21.10;99.90
70368;DHT22;57789;53.868;10.728;2023-08-01T13:56:12;21.30;99.90
70368;DHT22;57789;53.868;10.728;2023-08-01T13:58:39;20.90;99.90
70368;DHT22;57789;53.868;10.728;2023-08-01T14:01:07;21.00;99.90
70368;DHT22;57789;53.868;10.728;2023-08-01T14:03:37;20.90;99.90
70368;DHT22;57789;53.868;10.728;2023-08-01T14:06:11;20.30;99.90
70368;DHT22;57789;53.868;10.728;2023-08-01T14:08:41;20.10;99.90
70368;DHT22;57789;53.868;10.728;2023-08-01T14:11:09;20.10;99.90
70368;DHT22;57789;53.868;10.728;2023-08-01T14:13:35;20.20;99.90
70368;DHT22;57789;53.868;10.728;2023-08-01T14:16:01;20.20;99.90
70368;DHT22;57789;53.868;10.728;2023-08-01T14:18:28;20.40;99.90
70368;DHT22;57789;53.868;10.728;2023-08-01T14:20:53;20.30;99.90
70368;DHT22;57789;53.868;10.728;2023-08-01T14:23:20;20.20;99.90
70368;DHT22;57789;53.868;10.728;2023-08-01T14:25:46;20.20;99.90
70368;DHT22;57789;53.868;10.728;2023-08-01T14:28:11;20.50;99.90
70368;DHT22;57789;53.868;10.728;2023-08-01T14:30:37;21.30;99.90
70368;DHT22;57789;53.868;10.728;2023-08-01T14:33:05;21.60;99.90
70368;DHT22;57789;53.868;10.728;2023-08-01T14:35:32;22.10;99.90
70368;DHT22;57789;53.868;10.728;2023-08-01T14:37:58;22.60;99.90
70368;DHT22;57789;53.868;10.728;2023-08-01T14:40:24;23.10;99.90
70368;DHT22;57789;53.868;10.728;2023-08-01T14:42:50;23.20;99.90
70368;DHT22;57789;53.868;10.728;2023-08-01T14:45:17;23.60;99.90
70368;DHT22;57789;53.868;10.728;2023-08-01T14:47:44;23.90;99.90
70368;DHT22;57789;53.868;10.728;2023-08-01T14:50:14;23.70;99.90
70368;DHT22;57789;53.868;10.728;2023-08-01T14:52:41;24.00;99.90
70368;DHT22;57789;53.868;10.728;2023-08-01T14:55:07;24.90;99.90
70368;DHT22;57789;53.868;10.728;2023-08-01T14:57:33;25.10;99.90
70368;DHT22;57789;53.868;10.728;2023-08-01T14:59:59;24.60;99.90
70368;DHT22;57789;53.868;10.728;2023-08-01T15:02:27;24.70;99.90
70368;DHT22;57789;53.868;10.728;2023-08-01T15:04:57;24.80;99.90
70368;DHT22;57789;53.868;10.728;2023-08-01T15:07:24;24.80;99.90
70368;DHT22;57789;53.868;10.728;2023-08-01T15:09:53;24.40;99.90
70368;DHT22;57789;53.868;10.728;2023-08-01T15:12:24;23.80;99.90
70368;DHT22;57789;53.868;10.728;2023-08-01T15:14:57;24.40;99.90
70368;DHT22;57789;53.868;10.728;2023-08-01T15:17:27;25.00;99.90
70368;DHT22;57789;53.868;10.728;2023-08-01T15:19:54;25.00;99.90
70368;DHT22;57789;53.868;10.728;2023-08-01T15:22:20;25.30;99.90